createdAt,value
2023-03-02T00:01:58.527Z,99581.81
2023-03-02T00:04:34.632Z,99576.56
2023-03-02T00:07:05.780Z,99570.41
2023-03-02T00:09:32.808Z,99577.19
2023-03-02T00:12:00.192Z,99576.19
2023-03-02T00:14:27.144Z,99569.16
2023-03-02T00:16:54.388Z,99575.09
2023-03-02T00:19:21.659Z,99576.75
2023-03-02T00:21:48.830Z,99568.88
2023-03-02T00:24:15.950Z,99567.09
2023-03-02T00:26:43.183Z,99561.00
2023-03-02T00:29:10.079Z,99566.97
2023-03-02T00:31:38.377Z,99564.38
2023-03-02T00:34:05.313Z,99559.22
2023-03-02T00:36:32.542Z,99555.72
2023-03-02T00:38:59.566Z,99554.84
2023-03-02T00:41:27.154Z,99551.31
2023-03-02T00:43:54.079Z,99550.44
2023-03-02T00:46:23.122Z,99549.44
2023-03-02T00:48:50.200Z,99549.34
2023-03-02T00:51:18.269Z,99549.19
2023-03-02T00:53:45.212Z,99552.50
2023-03-02T00:56:13.364Z,99545.50
2023-03-02T00:58:40.623Z,99545.53
2023-03-02T01:01:10.603Z,99546.44
2023-03-02T01:03:37.901Z,99540.41
2023-03-02T01:06:05.989Z,99539.47
2023-03-02T01:08:32.889Z,99537.88
2023-03-02T01:11:01.594Z,99529.19
2023-03-02T01:13:28.784Z,99530.03
2023-03-02T01:16:03.066Z,99530.84
2023-03-02T01:18:30.040Z,99523.94
2023-03-02T01:21:05.401Z,99534.19
2023-03-02T01:23:32.672Z,99530.03
2023-03-02T01:25:59.972Z,99518.97
2023-03-02T01:28:27.085Z,99524.13
2023-03-02T01:30:54.543Z,99512.91
2023-03-02T01:33:21.640Z,99517.22
2023-03-02T01:35:49.406Z,99514.69
2023-03-02T01:38:16.444Z,99496.63
2023-03-02T01:40:43.843Z,99495.81
2023-03-02T01:43:13.786Z,99502.63
2023-03-02T01:45:53.954Z,99506.06
2023-03-02T01:48:27.705Z,99490.53
2023-03-02T01:50:55.267Z,99492.22
2023-03-02T01:53:25.251Z,99490.50
2023-03-02T01:55:53.090Z,99491.38
2023-03-02T01:58:21.018Z,99485.47
2023-03-02T02:00:49.111Z,99493.22
2023-03-02T02:03:24.913Z,99487.22
2023-03-02T02:06:18.155Z,99477.84
2023-03-02T02:08:47.424Z,99477.88
2023-03-02T02:11:15.024Z,99485.59
2023-03-02T02:13:43.387Z,99475.31
2023-03-02T02:16:10.857Z,99474.50
2023-03-02T02:18:40.134Z,99474.53
2023-03-02T02:21:08.455Z,99477.22
2023-03-02T02:23:53.900Z,99474.69
2023-03-02T02:26:37.245Z,99474.72
2023-03-02T02:29:30.367Z,99479.00
2023-03-02T02:32:03.012Z,99475.50
2023-03-02T02:34:39.436Z,99477.13
2023-03-02T02:37:24.087Z,99476.06
2023-03-02T02:39:51.883Z,99471.81
2023-03-02T02:42:32.763Z,99473.59
2023-03-02T02:45:05.878Z,99476.97
2023-03-02T02:47:34.150Z,99476.94
2023-03-02T02:50:01.186Z,99477.78
2023-03-02T02:52:29.721Z,99478.66
2023-03-02T02:54:59.143Z,99476.13
2023-03-02T02:57:29.567Z,99471.88
2023-03-02T02:59:59.377Z,99466.78
2023-03-02T03:02:30.682Z,99459.09
2023-03-02T03:05:03.432Z,99468.59
2023-03-02T03:07:32.340Z,99469.44
2023-03-02T03:10:26.203Z,99470.19
2023-03-02T03:12:53.608Z,99467.56
2023-03-02T03:15:21.113Z,99462.44
2023-03-02T03:17:55.343Z,99462.53
2023-03-02T03:20:23.184Z,99460.03
2023-03-02T03:22:53.500Z,99466.19
2023-03-02T03:25:22.253Z,99461.09
2023-03-02T03:27:49.420Z,99462.88
2023-03-02T03:30:17.106Z,99462.88
2023-03-02T03:32:44.728Z,99458.41
2023-03-02T03:35:12.633Z,99466.06
2023-03-02T03:37:41.431Z,99464.91
2023-03-02T03:40:09.903Z,99463.00
2023-03-02T03:42:38.441Z,99463.66
2023-03-02T03:45:07.057Z,99455.72
2023-03-02T03:47:34.286Z,99462.53
2023-03-02T03:50:01.215Z,99447.16
2023-03-02T03:52:31.509Z,99452.38
2023-03-02T03:55:00.211Z,99450.66
2023-03-02T03:57:29.105Z,99443.84
2023-03-02T03:59:56.475Z,99445.53
2023-03-02T04:02:24.333Z,99431.84
2023-03-02T04:04:51.331Z,99446.44
2023-03-02T04:07:18.674Z,99437.16
2023-03-02T04:09:45.562Z,99436.47
2023-03-02T04:12:12.833Z,99442.72
2023-03-02T04:14:39.826Z,99432.44
2023-03-02T04:17:07.590Z,99435.09
2023-03-02T04:19:35.664Z,99447.97
2023-03-02T04:22:04.357Z,99441.84
2023-03-02T04:24:31.858Z,99440.09
2023-03-02T04:26:59.128Z,99442.59
2023-03-02T04:29:26.389Z,99441.72
2023-03-02T04:31:53.894Z,99438.19
2023-03-02T04:34:20.996Z,99432.19
2023-03-02T04:36:48.200Z,99435.56
2023-03-02T04:39:16.747Z,99432.03
2023-03-02T04:41:44.045Z,99431.94
2023-03-02T04:44:11.203Z,99430.13
2023-03-02T04:46:39.193Z,99432.75
2023-03-02T04:49:06.640Z,99426.69
2023-03-02T04:51:39.953Z,99414.69
2023-03-02T04:54:13.439Z,99419.84
2023-03-02T04:56:40.710Z,99417.31
2023-03-02T04:59:07.645Z,99417.25
2023-03-02T05:01:34.945Z,99418.97
2023-03-02T05:04:03.069Z,99424.09
2023-03-02T05:06:30.760Z,99423.16
2023-03-02T05:08:59.966Z,99427.41
2023-03-02T05:11:27.297Z,99431.66
2023-03-02T05:13:57.878Z,99431.59
2023-03-02T05:16:29.444Z,99434.22
2023-03-02T05:18:56.652Z,99424.78
2023-03-02T05:21:24.421Z,99429.13
2023-03-02T05:23:52.067Z,99434.22
2023-03-02T05:26:19.400Z,99430.84
2023-03-02T05:28:46.625Z,99424.28
2023-03-02T05:31:19.592Z,99431.56
2023-03-02T05:33:46.664Z,99428.59
2023-03-02T05:36:13.903Z,99425.69
2023-03-02T05:38:40.833Z,99428.81
2023-03-02T05:41:08.041Z,99424.16
2023-03-02T05:43:34.979Z,99436.75
2023-03-02T05:46:02.574Z,99439.81
2023-03-02T05:48:30.641Z,99440.25
2023-03-02T05:50:58.318Z,99440.59
2023-03-02T05:53:25.670Z,99444.28
2023-03-02T05:55:53.463Z,99446.16
2023-03-02T05:58:20.717Z,99448.84
2023-03-02T06:00:48.898Z,99453.31
2023-03-02T06:03:16.952Z,99458.53
2023-03-02T06:05:44.207Z,99461.25
2023-03-02T06:08:11.291Z,99462.34
2023-03-02T06:10:38.695Z,99467.00
2023-03-02T06:13:05.662Z,99463.72
2023-03-02T06:15:32.940Z,99466.41
2023-03-02T06:17:59.869Z,99467.38
2023-03-02T06:20:27.129Z,99464.00
2023-03-02T06:22:54.274Z,99462.34
2023-03-02T06:25:23.953Z,99461.53
2023-03-02T06:27:53.768Z,99464.16
2023-03-02T06:30:23.952Z,99463.28
2023-03-02T06:32:51.102Z,99464.91
2023-03-02T06:35:18.703Z,99461.25
2023-03-02T06:37:45.674Z,99466.28
2023-03-02T06:40:14.096Z,99467.88
2023-03-02T06:42:42.563Z,99466.03
2023-03-02T06:45:11.189Z,99469.34
2023-03-02T06:47:38.286Z,99460.41
2023-03-02T06:50:06.241Z,99469.88
2023-03-02T06:52:33.386Z,99463.59
2023-03-02T06:55:00.885Z,99464.81
2023-03-02T06:57:33.893Z,99461.84
2023-03-02T07:00:06.907Z,99461.75
2023-03-02T07:02:33.854Z,99466.50
2023-03-02T07:05:01.113Z,99468.31
2023-03-02T07:07:28.138Z,99466.72
2023-03-02T07:09:55.323Z,99465.59
2023-03-02T07:12:22.507Z,99467.75
2023-03-02T07:14:49.650Z,99464.91
2023-03-02T07:17:16.592Z,99462.44
2023-03-02T07:19:43.750Z,99468.00
2023-03-02T07:22:10.720Z,99453.63
2023-03-02T07:24:37.941Z,99457.47
2023-03-02T07:27:04.812Z,99450.38
2023-03-02T07:29:31.987Z,99454.59
2023-03-02T07:32:01.966Z,99463.28
2023-03-02T07:34:30.624Z,99463.94
2023-03-02T07:36:58.007Z,99454.34
2023-03-02T07:39:25.221Z,99455.78
2023-03-02T07:41:52.125Z,99454.66
2023-03-02T07:44:19.313Z,99447.56
2023-03-02T07:46:46.287Z,99448.31
2023-03-02T07:49:13.484Z,99438.63
2023-03-02T07:51:40.351Z,99439.75
2023-03-02T07:54:07.582Z,99437.69
2023-03-02T07:56:34.720Z,99437.78
2023-03-02T07:59:01.918Z,99433.03
2023-03-02T08:01:28.836Z,99429.63
2023-03-02T08:03:56.081Z,99425.31
2023-03-02T08:06:23.099Z,99421.16
2023-03-02T08:08:50.315Z,99419.22
2023-03-02T08:11:18.732Z,99420.44
2023-03-02T08:13:46.663Z,99409.81
2023-03-02T08:16:15.407Z,99406.81
2023-03-02T08:18:42.824Z,99409.69
2023-03-02T08:21:15.157Z,99408.44
2023-03-02T08:23:42.824Z,99404.53
2023-03-02T08:26:12.596Z,99410.09
2023-03-02T08:28:40.785Z,99414.09
2023-03-02T08:31:09.180Z,99409.50
2023-03-02T08:33:36.888Z,99399.56
2023-03-02T08:36:11.465Z,99404.19
2023-03-02T08:38:39.025Z,99404.56
2023-03-02T08:41:09.017Z,99403.09
2023-03-02T08:43:36.590Z,99403.13
2023-03-02T08:46:04.187Z,99403.72
2023-03-02T08:48:31.874Z,99404.44
2023-03-02T08:51:09.540Z,99390.81
2023-03-02T08:53:40.120Z,99392.59
2023-03-02T08:56:17.015Z,99398.22
2023-03-02T08:58:44.362Z,99396.28
2023-03-02T09:01:23.846Z,99385.03
2023-03-02T09:03:51.652Z,99389.03
2023-03-02T09:06:19.134Z,99392.22
2023-03-02T09:08:46.875Z,99393.09
2023-03-02T09:11:14.227Z,99387.63
2023-03-02T09:13:41.573Z,99386.91
2023-03-02T09:16:09.975Z,99383.72
2023-03-02T09:18:40.031Z,99381.69
2023-03-02T09:21:23.611Z,99382.81
2023-03-02T09:24:00.567Z,99378.09
2023-03-02T09:26:29.664Z,99371.75
2023-03-02T09:28:57.382Z,99367.16
2023-03-02T09:31:24.677Z,99369.25
2023-03-02T09:33:52.034Z,99355.84
2023-03-02T09:36:22.199Z,99364.16
2023-03-02T09:38:49.771Z,99365.91
2023-03-02T09:41:19.865Z,99353.72
2023-03-02T09:44:15.072Z,99352.91
2023-03-02T09:46:46.639Z,99355.63
2023-03-02T09:49:33.042Z,99352.94
2023-03-02T09:52:08.846Z,99350.94
2023-03-02T09:54:38.085Z,99357.41
2023-03-02T09:57:20.976Z,99352.50
2023-03-02T10:00:09.499Z,99357.47
2023-03-02T10:03:17.412Z,99357.66
2023-03-02T10:05:54.275Z,99349.66
2023-03-02T10:08:29.580Z,99352.63
2023-03-02T10:11:41.917Z,99350.69
2023-03-02T10:14:15.526Z,99341.59
2023-03-02T10:16:52.680Z,99352.38
2023-03-02T10:19:27.676Z,99348.44
2023-03-02T10:22:03.280Z,99342.28
2023-03-02T10:24:39.108Z,99342.47
2023-03-02T10:27:24.611Z,99329.31
2023-03-02T10:29:58.827Z,99344.41
2023-03-02T10:32:33.063Z,99334.19
2023-03-02T10:35:10.984Z,99331.19
2023-03-02T10:37:38.265Z,99333.69
2023-03-02T10:40:05.525Z,99333.56
2023-03-02T10:42:37.761Z,99333.16
2023-03-02T10:45:25.152Z,99320.78
2023-03-02T10:48:09.355Z,99326.25
2023-03-02T10:50:37.268Z,99326.28
2023-03-02T10:53:08.690Z,99317.63
2023-03-02T10:55:35.601Z,99323.00
2023-03-02T10:58:07.077Z,99320.91
2023-03-02T11:00:34.988Z,99314.94
2023-03-02T11:03:05.949Z,99308.81
2023-03-02T11:05:38.618Z,99308.09
2023-03-02T11:08:10.446Z,99301.31
2023-03-02T11:10:40.721Z,99304.00
2023-03-02T11:13:17.277Z,99306.00
2023-03-02T11:15:50.959Z,99300.31
2023-03-02T11:18:26.947Z,99295.38
2023-03-02T11:21:00.030Z,99294.03
2023-03-02T11:23:37.752Z,99295.69
2023-03-02T11:26:30.767Z,99289.59
2023-03-02T11:29:03.787Z,99286.91
2023-03-02T11:31:44.250Z,99279.38
2023-03-02T11:34:26.523Z,99272.91
2023-03-02T11:37:20.749Z,99275.50
2023-03-02T11:39:54.940Z,99266.56
2023-03-02T11:42:35.284Z,99269.50
2023-03-02T11:45:20.779Z,99267.31
2023-03-02T11:48:06.435Z,99254.31
2023-03-02T11:50:40.214Z,99263.16
2023-03-02T11:53:14.446Z,99254.53
2023-03-02T11:55:45.839Z,99247.00
2023-03-02T11:58:21.031Z,99248.88
2023-03-02T12:00:49.663Z,99244.81
2023-03-02T12:03:16.491Z,99238.25
2023-03-02T12:06:07.155Z,99231.94
2023-03-02T12:08:44.882Z,99226.03
2023-03-02T12:11:17.979Z,99226.50
2023-03-02T12:13:57.861Z,99227.78
2023-03-02T12:16:43.021Z,99225.78
2023-03-02T12:19:27.362Z,99221.78
2023-03-02T12:22:05.671Z,99215.53
2023-03-02T12:24:34.997Z,99210.56
2023-03-02T12:27:27.285Z,99205.59
2023-03-02T12:30:16.294Z,99206.47
2023-03-02T12:33:00.188Z,99199.47
2023-03-02T12:35:30.433Z,99201.22
2023-03-02T12:38:01.899Z,99195.00
2023-03-02T12:40:40.769Z,99193.84
2023-03-02T12:43:27.700Z,99190.09
2023-03-02T12:46:19.441Z,99192.50
2023-03-02T12:48:57.432Z,99181.94
2023-03-02T12:51:27.277Z,99184.22
2023-03-02T12:54:12.304Z,99180.38
2023-03-02T12:56:39.646Z,99187.31
2023-03-02T12:59:07.030Z,99178.16
2023-03-02T13:01:34.852Z,99171.66
2023-03-02T13:04:02.067Z,99173.19
2023-03-02T13:06:32.683Z,99162.34
2023-03-02T13:09:00.835Z,99160.84
2023-03-02T13:11:32.747Z,99161.09
2023-03-02T13:14:03.844Z,99141.59
2023-03-02T13:16:34.404Z,99148.69
2023-03-02T13:19:09.351Z,99149.25
2023-03-02T13:21:39.348Z,99143.50
2023-03-02T13:24:28.508Z,99139.53
2023-03-02T13:26:59.540Z,99146.75
2023-03-02T13:29:27.792Z,99138.47
2023-03-02T13:31:55.369Z,99139.81
2023-03-02T13:34:28.259Z,99140.69
2023-03-02T13:36:55.660Z,99136.06
2023-03-02T13:39:32.052Z,99133.84
2023-03-02T13:42:01.081Z,99131.19
2023-03-02T13:44:31.506Z,99128.88
2023-03-02T13:46:59.132Z,99120.69
2023-03-02T13:49:35.377Z,99118.75
2023-03-02T13:52:05.907Z,99111.94
2023-03-02T13:54:37.394Z,99104.19
2023-03-02T13:57:06.426Z,99108.59
2023-03-02T13:59:36.599Z,99108.47
2023-03-02T14:02:11.363Z,99104.69
2023-03-02T14:04:38.683Z,99106.31
2023-03-02T14:07:05.658Z,99103.47
2023-03-02T14:09:32.844Z,99098.53
2023-03-02T14:11:59.730Z,99091.50
2023-03-02T14:14:29.235Z,99100.03
2023-03-02T14:16:56.741Z,99097.25
2023-03-02T14:19:23.960Z,99088.78
2023-03-02T14:21:50.939Z,99090.09
2023-03-02T14:24:18.153Z,99084.19
2023-03-02T14:26:48.004Z,99086.28
2023-03-02T14:29:30.296Z,99091.88
2023-03-02T14:32:06.778Z,99087.81
2023-03-02T14:34:37.266Z,99087.50
2023-03-02T14:37:07.786Z,99088.50
2023-03-02T14:39:54.325Z,99081.66
2023-03-02T14:42:23.019Z,99084.72
2023-03-02T14:44:51.564Z,99086.34
2023-03-02T14:47:19.746Z,99090.38
2023-03-02T14:49:47.171Z,99082.72
2023-03-02T14:52:35.880Z,99077.94
2023-03-02T14:55:06.939Z,99068.38
2023-03-02T14:57:36.803Z,99073.69
2023-03-02T15:00:05.592Z,99067.28
2023-03-02T15:02:32.695Z,99075.94
2023-03-02T15:04:59.970Z,99070.56
2023-03-02T15:07:28.274Z,99074.75
2023-03-02T15:09:57.197Z,99074.59
2023-03-02T15:12:24.838Z,99073.34
2023-03-02T15:14:52.034Z,99069.59
2023-03-02T15:17:18.969Z,99075.31
2023-03-02T15:19:46.336Z,99079.16
2023-03-02T15:22:13.586Z,99079.50
2023-03-02T15:24:40.952Z,99076.25
2023-03-02T15:27:08.259Z,99074.88
2023-03-02T15:29:35.628Z,99078.81
2023-03-02T15:32:02.678Z,99077.41
2023-03-02T15:34:29.864Z,99080.34
2023-03-02T15:36:56.748Z,99082.59
2023-03-02T15:39:23.941Z,99091.66
2023-03-02T15:41:50.886Z,99085.91
2023-03-02T15:44:23.017Z,99074.97
2023-03-02T15:46:52.733Z,99085.91
2023-03-02T15:49:24.881Z,99085.31
2023-03-02T15:51:52.258Z,99079.69
2023-03-02T15:54:19.599Z,99083.69
2023-03-02T15:56:51.943Z,99089.50
2023-03-02T15:59:20.624Z,99085.59
2023-03-02T16:01:47.577Z,99086.06
2023-03-02T16:04:15.015Z,99086.41
2023-03-02T16:06:42.150Z,99087.66
2023-03-02T16:09:09.803Z,99088.03
2023-03-02T16:11:37.208Z,99088.47
2023-03-02T16:14:05.070Z,99098.41
2023-03-02T16:16:32.118Z,99097.97
2023-03-02T16:18:59.630Z,99096.84
2023-03-02T16:21:28.716Z,99096.63
2023-03-02T16:24:03.279Z,99105.97
2023-03-02T16:26:32.527Z,99095.09
2023-03-02T16:29:00.332Z,99096.41
2023-03-02T16:31:28.494Z,99103.69
2023-03-02T16:33:57.683Z,99096.19
2023-03-02T16:36:25.853Z,99098.16
2023-03-02T16:38:53.042Z,99106.25
2023-03-02T16:41:22.348Z,99091.72
2023-03-02T16:43:52.126Z,99096.28
2023-03-02T16:46:20.198Z,99097.34
2023-03-02T16:48:49.621Z,99102.81
2023-03-02T16:51:16.945Z,99099.63
2023-03-02T16:53:44.167Z,99100.66
2023-03-02T16:56:11.829Z,99101.69
2023-03-02T16:58:41.576Z,99104.38
2023-03-02T17:01:15.596Z,99101.00
2023-03-02T17:03:43.743Z,99108.91
2023-03-02T17:06:13.276Z,99097.72
2023-03-02T17:08:41.036Z,99103.91
2023-03-02T17:11:08.011Z,99102.19
2023-03-02T17:13:35.500Z,99103.97
2023-03-02T17:16:02.949Z,99106.59
2023-03-02T17:18:30.871Z,99107.50
2023-03-02T17:20:59.466Z,99112.72
2023-03-02T17:23:27.517Z,99098.06
2023-03-02T17:25:55.690Z,99109.31
2023-03-02T17:28:23.783Z,99107.63
2023-03-02T17:30:50.961Z,99110.22
2023-03-02T17:33:18.456Z,99112.84
2023-03-02T17:35:46.379Z,99109.38
2023-03-02T17:38:15.133Z,99111.16
2023-03-02T17:40:42.913Z,99106.84
2023-03-02T17:43:12.462Z,99109.44
2023-03-02T17:45:39.939Z,99106.84
2023-03-02T17:48:07.396Z,99109.44
2023-03-02T17:50:34.705Z,99112.03
2023-03-02T17:53:03.093Z,99112.03
2023-03-02T17:55:30.412Z,99109.44
2023-03-02T17:57:57.951Z,99104.25
2023-03-02T18:00:25.069Z,99107.69
2023-03-02T18:02:53.536Z,99112.03
2023-03-02T18:05:21.935Z,99118.97
2023-03-02T18:07:51.695Z,99112.91
2023-03-02T18:10:18.703Z,99114.66
2023-03-02T18:12:48.755Z,99110.31
2023-03-02T18:15:15.777Z,99111.16
2023-03-02T18:17:44.246Z,99114.59
2023-03-02T18:20:12.612Z,99112.03
2023-03-02T18:22:39.840Z,99120.66
2023-03-02T18:25:07.299Z,99118.91
2023-03-02T18:27:34.805Z,99120.63
2023-03-02T18:30:01.815Z,99127.53
2023-03-02T18:32:29.014Z,99121.50
2023-03-02T18:34:55.925Z,99130.97
2023-03-02T18:37:23.168Z,99124.94
2023-03-02T18:39:50.207Z,99129.25
2023-03-02T18:42:17.390Z,99124.91
2023-03-02T18:44:44.376Z,99124.06
2023-03-02T18:47:16.815Z,99126.66
2023-03-02T18:49:44.610Z,99124.91
2023-03-02T18:52:12.169Z,99131.81
2023-03-02T18:54:39.721Z,99135.28
2023-03-02T18:57:08.969Z,99128.34
2023-03-02T18:59:36.806Z,99128.34
2023-03-02T19:02:08.282Z,99134.41
2023-03-02T19:04:35.269Z,99135.28
2023-03-02T19:07:03.061Z,99136.16
2023-03-02T19:09:30.456Z,99137.91
2023-03-02T19:11:57.721Z,99138.75
2023-03-02T19:14:24.674Z,99138.75
2023-03-02T19:16:52.023Z,99146.53
2023-03-02T19:19:18.959Z,99147.38
2023-03-02T19:21:46.240Z,99144.75
2023-03-02T19:24:13.270Z,99138.66
2023-03-02T19:26:40.628Z,99142.97
2023-03-02T19:29:07.605Z,99152.41
2023-03-02T19:31:38.398Z,99147.22
2023-03-02T19:34:05.600Z,99148.09
2023-03-02T19:36:32.849Z,99143.72
2023-03-02T19:38:59.880Z,99148.88
2023-03-02T19:41:27.073Z,99154.06
2023-03-02T19:43:53.965Z,99139.38
2023-03-02T19:46:21.159Z,99144.56
2023-03-02T19:48:48.093Z,99147.09
2023-03-02T19:51:16.842Z,99135.03
2023-03-02T19:53:45.148Z,99141.03
2023-03-02T19:56:14.779Z,99135.81
2023-03-02T19:58:53.700Z,99131.41
2023-03-02T20:01:22.197Z,99133.94
2023-03-02T20:03:51.726Z,99129.59
2023-03-02T20:06:20.451Z,99126.13
2023-03-02T20:08:48.171Z,99133.88
2023-03-02T20:11:16.637Z,99137.31
2023-03-02T20:13:43.924Z,99133.81
2023-03-02T20:16:13.883Z,99129.53
2023-03-02T20:18:42.280Z,99121.75
2023-03-02T20:21:09.540Z,99121.72
2023-03-02T20:23:36.494Z,99119.94
2023-03-02T20:26:04.700Z,99121.72
2023-03-02T20:28:33.179Z,99113.03
2023-03-02T20:31:06.268Z,99117.31
2023-03-02T20:33:46.593Z,99114.72
2023-03-02T20:36:16.667Z,99120.69
2023-03-02T20:38:49.898Z,99108.63
2023-03-02T20:41:17.713Z,99100.84
2023-03-02T20:43:44.961Z,99102.53
2023-03-02T20:46:26.328Z,99095.63
2023-03-02T20:48:54.361Z,99093.03
2023-03-02T20:51:22.389Z,99086.13
2023-03-02T20:53:49.777Z,99093.00
2023-03-02T20:56:20.980Z,99086.94
2023-03-02T20:58:48.515Z,99085.22
2023-03-02T21:01:18.067Z,99074.00
2023-03-02T21:03:45.151Z,99075.75
2023-03-02T21:06:13.861Z,99076.59
2023-03-02T21:08:41.193Z,99068.78
2023-03-02T21:11:11.482Z,99072.22
2023-03-02T21:13:39.333Z,99068.75
2023-03-02T21:16:09.579Z,99064.44
2023-03-02T21:18:36.564Z,99061.81
2023-03-02T21:21:04.340Z,99062.66
2023-03-02T21:23:31.278Z,99053.16
2023-03-02T21:25:58.620Z,99053.97
2023-03-02T21:28:25.623Z,99058.25
2023-03-02T21:30:52.854Z,99049.63
2023-03-02T21:33:19.835Z,99052.25
2023-03-02T21:35:47.094Z,99045.34
2023-03-02T21:38:14.809Z,99052.19
2023-03-02T21:40:45.957Z,99042.72
2023-03-02T21:43:14.900Z,99045.28
2023-03-02T21:45:42.577Z,99049.56
2023-03-02T21:48:12.363Z,99046.09
2023-03-02T21:50:40.432Z,99041.78
2023-03-02T21:53:07.375Z,99039.16
2023-03-02T21:55:35.482Z,99031.38
2023-03-02T21:58:02.700Z,99036.53
2023-03-02T22:00:35.769Z,99028.72
2023-03-02T22:03:03.333Z,99036.47
2023-03-02T22:05:31.763Z,99028.69
2023-03-02T22:07:59.098Z,99030.41
2023-03-02T22:10:44.769Z,99026.94
2023-03-02T22:13:19.931Z,99022.63
2023-03-02T22:15:48.100Z,99023.47
2023-03-02T22:18:20.121Z,99018.28
2023-03-02T22:20:50.164Z,99016.53
2023-03-02T22:23:23.067Z,99011.28
2023-03-02T22:25:53.887Z,99013.00
2023-03-02T22:28:23.568Z,99013.00
2023-03-02T22:30:52.478Z,99013.00
2023-03-02T22:33:22.121Z,99008.66
2023-03-02T22:35:51.714Z,99010.38
2023-03-02T22:38:27.377Z,98999.22
2023-03-02T22:40:55.678Z,98991.44
2023-03-02T22:43:29.255Z,98992.28
2023-03-02T22:46:17.559Z,98989.69
2023-03-02T22:48:52.121Z,98994.84
2023-03-02T22:51:28.178Z,98992.22
2023-03-02T22:53:59.864Z,98987.91
2023-03-02T22:56:31.439Z,98983.63
2023-03-02T22:59:19.345Z,98987.91
2023-03-02T23:01:46.682Z,98996.50
2023-03-02T23:04:36.126Z,98986.19
2023-03-02T23:07:14.322Z,98980.19
2023-03-02T23:09:41.148Z,98987.09
2023-03-02T23:12:24.312Z,98987.06
2023-03-02T23:14:56.942Z,98971.53
2023-03-02T23:17:39.093Z,98980.09
2023-03-02T23:20:10.145Z,98976.59
2023-03-02T23:22:39.139Z,98980.03
2023-03-02T23:25:08.008Z,98979.97
2023-03-02T23:27:35.472Z,98982.56
2023-03-02T23:30:02.944Z,98975.69
2023-03-02T23:32:30.328Z,98971.38
2023-03-02T23:34:57.383Z,98975.72
2023-03-02T23:37:24.661Z,98967.97
2023-03-02T23:39:52.240Z,98964.53
2023-03-02T23:42:19.389Z,98970.53
2023-03-02T23:44:46.233Z,98971.38
2023-03-02T23:47:13.424Z,98964.50
2023-03-02T23:49:40.364Z,98967.91
2023-03-02T23:52:07.588Z,98965.31
2023-03-02T23:54:34.494Z,98956.69
2023-03-02T23:57:01.736Z,98960.16
2023-03-02T23:59:28.665Z,98957.53
